La rose des vents
Donnes mto: Semaine 26/04/21 - 02/05/21 (S 17)
Date Horaire Temp. E. Hum. E. P.atmo. Pluie Vent 1mn Direction Ensoleilleme Ev.Tr. Solaire P. de rose Temp au vent Rafales
26/04/2021 00:00 12,8 C 81 % 1013,9 hPa 0,0 l/m 0,0 km/h (0 Bft) N 0,00 h 0,025 mm 0 W/m 9,7 C 12,8 C 0,0 km/h (0 Bft)
26/04/2021 01:00 12,7 C 81 % 1013,6 hPa 0,0 l/m 0,0 km/h (0 Bft) N 0,00 h 0,025 mm 0 W/m 9,6 C 12,7 C 0,0 km/h (0 Bft)
26/04/2021 02:00 12,2 C 84 % 1013,6 hPa 0,0 l/m 0,0 km/h (0 Bft) N 0,00 h 0,025 mm 0 W/m 9,6 C 12,2 C 0,0 km/h (0 Bft)
26/04/2021 03:00 12,2 C 89 % 1013,4 hPa 0,0 l/m 0,0 km/h (0 Bft) N 0,00 h 0,025 mm 0 W/m 10,4 C 12,2 C 0,0 km/h (0 Bft)
26/04/2021 04:00 12,4 C 92 % 1013,2 hPa 0,2 l/m 0,0 km/h (0 Bft) N 0,00 h 0,000 mm 0 W/m 11,0 C 12,4 C 0,2 km/h (0 Bft)
26/04/2021 05:00 11,8 C 92 % 1011,8 hPa 0,8 l/m 0,7 km/h (0 Bft) E 0,00 h 0,000 mm 0 W/m 10,6 C 11,8 C 1,2 km/h (1 Bft)
26/04/2021 06:00 11,4 C 94 % 1011,4 hPa 1,0 l/m 0,0 km/h (0 Bft) E 0,00 h 0,000 mm 8 W/m 10,5 C 11,4 C 0,1 km/h (0 Bft)
26/04/2021 07:00 11,4 C 95 % 1012,0 hPa 0,0 l/m 0,1 km/h (0 Bft) N-NO 0,00 h 0,000 mm 60 W/m 10,6 C 11,4 C 0,6 km/h (0 Bft)
26/04/2021 08:00 12,2 C 95 % 1011,8 hPa 0,0 l/m 0,1 km/h (0 Bft) O 0,00 h 0,025 mm 140 W/m 11,4 C 12,2 C 0,4 km/h (0 Bft)
26/04/2021 09:00 13,6 C 89 % 1011,4 hPa 0,0 l/m 0,3 km/h (0 Bft) N-NO 0,28 h 0,076 mm 270 W/m 11,8 C 13,6 C 1,3 km/h (1 Bft)
26/04/2021 10:00 17,5 C 65 % 1011,3 hPa 0,0 l/m 2,3 km/h (1 Bft) E 1,00 h 0,127 mm 557 W/m 10,8 C 17,5 C 7,6 km/h (2 Bft)
26/04/2021 11:00 20,3 C 52 % 1010,6 hPa 0,0 l/m 3,2 km/h (1 Bft) E 1,00 h 0,330 mm 687 W/m 10,1 C 20,3 C 11,0 km/h (2 Bft)
26/04/2021 12:00 19,2 C 52 % 1009,9 hPa 0,0 l/m 3,5 km/h (1 Bft) E 0,58 h 0,432 mm 479 W/m 9,1 C 19,2 C 12,5 km/h (3 Bft)
26/04/2021 13:00 20,4 C 52 % 1008,9 hPa 0,0 l/m 2,4 km/h (1 Bft) E 1,00 h 0,305 mm 843 W/m 10,1 C 20,4 C 11,7 km/h (2 Bft)
26/04/2021 14:00 20,8 C 49 % 1007,9 hPa 0,0 l/m 3,3 km/h (1 Bft) E 1,00 h 0,508 mm 802 W/m 9,7 C 20,8 C 13,1 km/h (3 Bft)
26/04/2021 15:00 20,2 C 51 % 1006,9 hPa 0,0 l/m 3,2 km/h (1 Bft) E 0,67 h 0,483 mm 546 W/m 9,5 C 20,2 C 12,2 km/h (2 Bft)
26/04/2021 16:00 16,7 C 60 % 1007,3 hPa 0,2 l/m 2,2 km/h (1 Bft) E 0,00 h 0,305 mm 30 W/m 8,9 C 16,7 C 7,5 km/h (2 Bft)
26/04/2021 17:00 14,1 C 77 % 1008,2 hPa 0,4 l/m 1,7 km/h (1 Bft) N-NE 0,00 h 0,025 mm 34 W/m 10,1 C 14,1 C 5,3 km/h (1 Bft)
26/04/2021 18:00 13,2 C 84 % 1007,7 hPa 0,2 l/m 1,6 km/h (1 Bft) O-NO 0,00 h 0,025 mm 14 W/m 10,6 C 13,2 C 4,6 km/h (1 Bft)
26/04/2021 19:00 12,7 C 89 % 1005,9 hPa 0,2 l/m 1,8 km/h (1 Bft) S-SO 0,00 h 0,000 mm 8 W/m 10,9 C 12,7 C 4,3 km/h (1 Bft)
26/04/2021 20:00 12,7 C 92 % 1006,8 hPa 0,2 l/m 0,1 km/h (0 Bft) E-NE 0,00 h 0,000 mm 0 W/m 11,4 C 12,7 C 0,3 km/h (0 Bft)
26/04/2021 21:00 12,7 C 90 % 1007,1 hPa 0,4 l/m 0,7 km/h (0 Bft) N-NE 0,00 h 0,000 mm 0 W/m 11,1 C 12,7 C 3,3 km/h (1 Bft)
26/04/2021 22:00 12,3 C 89 % 1007,0 hPa 0,4 l/m 0,6 km/h (0 Bft) N-NE 0,00 h 0,000 mm 0 W/m 10,5 C 12,3 C 2,7 km/h (1 Bft)
26/04/2021 23:00 11,8 C 89 % 1006,5 hPa 0,2 l/m 0,4 km/h (0 Bft) N 0,00 h 0,000 mm 0 W/m 10,0 C 11,8 C 2,7 km/h (1 Bft)
27/04/2021 00:00 12,3 C 82 % 1006,0 hPa 0,0 l/m 0,8 km/h (0 Bft) N-NE 0,00 h 0,000 mm 0 W/m 9,3 C 12,3 C 3,9 km/h (1 Bft)
27/04/2021 01:00 13,2 C 75 % 1005,7 hPa 0,0 l/m 0,4 km/h (0 Bft) N-NE 0,00 h 0,025 mm 0 W/m 8,9 C 13,2 C 2,3 km/h (1 Bft)
27/04/2021 02:00 13,2 C 76 % 1005,2 hPa 0,0 l/m 0,1 km/h (0 Bft) N 0,00 h 0,025 mm 0 W/m 9,1 C 13,2 C 0,8 km/h (0 Bft)
27/04/2021 03:00 13,1 C 76 % 1004,5 hPa 0,0 l/m 0,2 km/h (0 Bft) N-NE 0,00 h 0,025 mm 0 W/m 8,9 C 13,1 C 2,2 km/h (1 Bft)
27/04/2021 04:00 13,0 C 81 % 1004,4 hPa 0,0 l/m 0,3 km/h (0 Bft) N-NE 0,00 h 0,025 mm 0 W/m 9,9 C 13,0 C 1,4 km/h (1 Bft)
27/04/2021 05:00 12,7 C 83 % 1004,2 hPa 0,0 l/m 0,0 km/h (0 Bft) N-NE 0,00 h 0,025 mm 0 W/m 10,0 C 12,7 C 0,1 km/h (0 Bft)
27/04/2021 06:00 12,3 C 86 % 1004,1 hPa 0,0 l/m 0,0 km/h (0 Bft) N 0,00 h 0,025 mm 14 W/m 10,0 C 12,3 C 0,0 km/h (0 Bft)
27/04/2021 07:00 12,3 C 86 % 1004,2 hPa 0,0 l/m 0,0 km/h (0 Bft) N 0,00 h 0,000 mm 44 W/m 10,0 C 12,3 C 0,0 km/h (0 Bft)
27/04/2021 08:00 13,2 C 86 % 1004,4 hPa 0,0 l/m 0,0 km/h (0 Bft) N 0,00 h 0,025 mm 82 W/m 10,8 C 13,2 C 0,0 km/h (0 Bft)
27/04/2021 09:00 13,9 C 83 % 1004,7 hPa 0,0 l/m 0,0 km/h (0 Bft) N 0,00 h 0,051 mm 87 W/m 11,1 C 13,9 C 0,0 km/h (0 Bft)
27/04/2021 10:00 14,8 C 79 % 1005,0 hPa 0,0 l/m 0,0 km/h (0 Bft) N 0,00 h 0,051 mm 220 W/m 11,1 C 14,8 C 0,1 km/h (0 Bft)
27/04/2021 11:00 17,5 C 68 % 1005,2 hPa 0,0 l/m 0,9 km/h (0 Bft) E 0,53 h 0,127 mm 468 W/m 11,4 C 17,5 C 4,0 km/h (1 Bft)
27/04/2021 12:00 17,5 C 66 % 1005,3 hPa 0,0 l/m 1,7 km/h (1 Bft) E 0,00 h 0,254 mm 347 W/m 10,9 C 17,5 C 6,9 km/h (2 Bft)
27/04/2021 13:00 17,1 C 69 % 1005,5 hPa 0,0 l/m 1,6 km/h (1 Bft) E 0,03 h 0,203 mm 332 W/m 11,4 C 17,1 C 5,7 km/h (1 Bft)
27/04/2021 14:00 17,7 C 66 % 1005,3 hPa 0,0 l/m 1,6 km/h (1 Bft) E 0,18 h 0,178 mm 392 W/m 11,3 C 17,7 C 5,5 km/h (1 Bft)
27/04/2021 15:00 19,3 C 59 % 1004,7 hPa 0,0 l/m 2,1 km/h (1 Bft) E 0,55 h 0,229 mm 469 W/m 11,1 C 19,3 C 7,7 km/h (2 Bft)
27/04/2021 16:00 17,7 C 64 % 1004,5 hPa 0,0 l/m 1,4 km/h (1 Bft) E 0,17 h 0,279 mm 251 W/m 10,9 C 17,7 C 5,4 km/h (1 Bft)
27/04/2021 17:00 15,8 C 74 % 1004,7 hPa 0,0 l/m 0,3 km/h (0 Bft) E-SE 0,00 h 0,152 mm 94 W/m 11,1 C 15,8 C 1,6 km/h (1 Bft)
27/04/2021 18:00 14,9 C 81 % 1004,8 hPa 0,6 l/m 0,1 km/h (0 Bft) E 0,00 h 0,051 mm 72 W/m 11,6 C 14,9 C 0,9 km/h (0 Bft)
27/04/2021 19:00 13,4 C 86 % 1004,8 hPa 0,0 l/m 0,2 km/h (0 Bft) E 0,00 h 0,051 mm 33 W/m 11,0 C 13,4 C 0,9 km/h (0 Bft)
27/04/2021 20:00 13,0 C 88 % 1005,1 hPa 0,4 l/m 0,0 km/h (0 Bft) E 0,00 h 0,025 mm 9 W/m 11,0 C 13,0 C 0,2 km/h (0 Bft)
27/04/2021 21:00 12,5 C 91 % 1005,9 hPa 0,2 l/m 0,0 km/h (0 Bft) N 0,00 h 0,000 mm 0 W/m 11,0 C 12,5 C 0,0 km/h (0 Bft)
27/04/2021 22:00 11,9 C 92 % 1006,2 hPa 1,4 l/m 1,3 km/h (1 Bft) E 0,00 h 0,000 mm 0 W/m 10,7 C 11,9 C 3,4 km/h (1 Bft)
27/04/2021 23:00 11,5 C 94 % 1006,1 hPa 0,2 l/m 1,4 km/h (1 Bft) NO 0,00 h 0,000 mm 0 W/m 10,5 C 11,5 C 4,5 km/h (1 Bft)
28/04/2021 00:00 11,4 C 94 % 1006,1 hPa 0,0 l/m 0,2 km/h (0 Bft) NO 0,00 h 0,000 mm 0 W/m 10,4 C 11,4 C 1,1 km/h (1 Bft)
28/04/2021 01:00 11,5 C 92 % 1006,0 hPa 0,0 l/m 1,0 km/h (0 Bft) NO 0,00 h 0,000 mm 0 W/m 10,3 C 11,5 C 2,8 km/h (1 Bft)
28/04/2021 02:00 11,7 C 91 % 1005,5 hPa 0,0 l/m 0,1 km/h (0 Bft) NO 0,00 h 0,000 mm 0 W/m 10,3 C 11,7 C 0,5 km/h (0 Bft)
28/04/2021 03:00 11,8 C 90 % 1005,4 hPa 0,0 l/m 0,0 km/h (0 Bft) N 0,00 h 0,000 mm 0 W/m 10,2 C 11,8 C 0,0 km/h (0 Bft)
28/04/2021 04:00 11,6 C 92 % 1005,3 hPa 0,2 l/m 0,0 km/h (0 Bft) N 0,00 h 0,000 mm 0 W/m 10,2 C 11,6 C 0,0 km/h (0 Bft)
28/04/2021 05:00 11,3 C 93 % 1005,1 hPa 0,0 l/m 0,0 km/h (0 Bft) N 0,00 h 0,000 mm 0 W/m 10,2 C 11,3 C 0,0 km/h (0 Bft)
28/04/2021 06:00 11,2 C 94 % 1005,5 hPa 0,0 l/m 0,0 km/h (0 Bft) N 0,00 h 0,000 mm 7 W/m 10,3 C 11,2 C 0,0 km/h (0 Bft)
28/04/2021 07:00 11,4 C 94 % 1005,8 hPa 0,0 l/m 0,3 km/h (0 Bft) NO 0,00 h 0,000 mm 21 W/m 10,4 C 11,4 C 1,4 km/h (1 Bft)
28/04/2021 08:00 11,9 C 93 % 1006,0 hPa 0,0 l/m 0,0 km/h (0 Bft) N 0,00 h 0,000 mm 77 W/m 10,8 C 11,9 C 0,0 km/h (0 Bft)
28/04/2021 09:00 13,0 C 91 % 1006,3 hPa 0,0 l/m 0,0 km/h (0 Bft) N 0,00 h 0,051 mm 132 W/m 11,5 C 13,0 C 0,0 km/h (0 Bft)
28/04/2021 10:00 14,3 C 85 % 1006,7 hPa 0,0 l/m 0,0 km/h (0 Bft) N 0,00 h 0,076 mm 151 W/m 11,9 C 14,3 C 0,1 km/h (0 Bft)
28/04/2021 11:00 14,9 C 81 % 1007,1 hPa 0,0 l/m 1,0 km/h (0 Bft) SO 0,00 h 0,076 mm 221 W/m 11,8 C 14,9 C 4,1 km/h (1 Bft)
28/04/2021 12:00 16,2 C 73 % 1007,3 hPa 0,0 l/m 1,9 km/h (1 Bft) SO 0,00 h 0,127 mm 319 W/m 11,3 C 16,2 C 5,4 km/h (1 Bft)
28/04/2021 13:00 18,0 C 69 % 1007,1 hPa 0,0 l/m 1,5 km/h (1 Bft) S-SE 0,55 h 0,178 mm 505 W/m 12,2 C 18,0 C 3,6 km/h (1 Bft)
28/04/2021 14:00 17,0 C 74 % 1007,4 hPa 0,0 l/m 4,1 km/h (1 Bft) S-SE 0,03 h 0,279 mm 302 W/m 12,2 C 17,0 C 8,0 km/h (2 Bft)
28/04/2021 15:00 16,2 C 76 % 1007,6 hPa 0,2 l/m 4,3 km/h (1 Bft) S 0,00 h 0,178 mm 269 W/m 12,1 C 16,2 C 7,7 km/h (2 Bft)
28/04/2021 16:00 16,2 C 78 % 1007,6 hPa 0,0 l/m 4,0 km/h (1 Bft) S 0,13 h 0,152 mm 240 W/m 12,4 C 16,2 C 7,1 km/h (2 Bft)
28/04/2021 17:00 15,9 C 80 % 1007,4 hPa 0,0 l/m 0,8 km/h (0 Bft) S 0,00 h 0,152 mm 183 W/m 12,4 C 15,9 C 2,6 km/h (1 Bft)
28/04/2021 18:00 15,7 C 81 % 1007,2 hPa 0,0 l/m 0,0 km/h (0 Bft) N 0,00 h 0,102 mm 123 W/m 12,4 C 15,7 C 0,3 km/h (0 Bft)
28/04/2021 19:00 15,1 C 82 % 1007,2 hPa 0,0 l/m 0,0 km/h (0 Bft) N 0,00 h 0,076 mm 60 W/m 12,1 C 15,1 C 0,0 km/h (0 Bft)
28/04/2021 20:00 14,0 C 84 % 1007,8 hPa 0,0 l/m 0,0 km/h (0 Bft) N 0,00 h 0,025 mm 12 W/m 11,3 C 14,0 C 0,1 km/h (0 Bft)
28/04/2021 21:00 13,2 C 86 % 1008,3 hPa 0,0 l/m 0,0 km/h (0 Bft) N 0,00 h 0,000 mm 0 W/m 10,9 C 13,2 C 0,0 km/h (0 Bft)
28/04/2021 22:00 13,1 C 87 % 1008,5 hPa 0,0 l/m 0,0 km/h (0 Bft) N 0,00 h 0,000 mm 0 W/m 11,0 C 13,1 C 0,0 km/h (0 Bft)
28/04/2021 23:00 12,9 C 87 % 1008,6 hPa 0,0 l/m 0,0 km/h (0 Bft) N 0,00 h 0,000 mm 0 W/m 10,9 C 12,9 C 0,0 km/h (0 Bft)
29/04/2021 00:00 12,7 C 89 % 1008,8 hPa 0,0 l/m 0,0 km/h (0 Bft) N 0,00 h 0,000 mm 0 W/m 10,9 C 12,7 C 0,0 km/h (0 Bft)
29/04/2021 01:00 12,7 C 91 % 1008,6 hPa 0,0 l/m 0,0 km/h (0 Bft) N 0,00 h 0,000 mm 0 W/m 11,2 C 12,7 C 0,0 km/h (0 Bft)
29/04/2021 02:00 12,4 C 90 % 1008,6 hPa 0,0 l/m 0,0 km/h (0 Bft) N 0,00 h 0,000 mm 0 W/m 10,8 C 12,4 C 0,0 km/h (0 Bft)
29/04/2021 03:00 12,3 C 91 % 1008,4 hPa 0,0 l/m 0,0 km/h (0 Bft) N 0,00 h 0,000 mm 0 W/m 10,8 C 12,3 C 0,0 km/h (0 Bft)
29/04/2021 04:00 12,2 C 92 % 1008,5 hPa 0,0 l/m 0,0 km/h (0 Bft) N 0,00 h 0,000 mm 0 W/m 10,9 C 12,2 C 0,0 km/h (0 Bft)
29/04/2021 05:00 12,0 C 93 % 1008,3 hPa 0,0 l/m 0,0 km/h (0 Bft) N 0,00 h 0,000 mm 0 W/m 10,8 C 12,0 C 0,0 km/h (0 Bft)
29/04/2021 06:00 11,9 C 94 % 1008,5 hPa 1,8 l/m 0,0 km/h (0 Bft) N 0,00 h 0,000 mm 6 W/m 10,9 C 11,9 C 0,0 km/h (0 Bft)
29/04/2021 07:00 11,8 C 95 % 1008,7 hPa 0,0 l/m 0,0 km/h (0 Bft) N 0,00 h 0,000 mm 29 W/m 10,9 C 11,8 C 0,0 km/h (0 Bft)
29/04/2021 08:00 12,2 C 96 % 1008,5 hPa 0,0 l/m 0,0 km/h (0 Bft) N 0,00 h 0,025 mm 48 W/m 11,6 C 12,2 C 0,0 km/h (0 Bft)
29/04/2021 09:00 12,6 C 96 % 1008,8 hPa 0,0 l/m 0,0 km/h (0 Bft) N 0,00 h 0,025 mm 113 W/m 12,1 C 12,6 C 0,0 km/h (0 Bft)
29/04/2021 10:00 13,6 C 97 % 1008,6 hPa 0,0 l/m 0,0 km/h (0 Bft) N 0,00 h 0,051 mm 121 W/m 13,1 C 13,6 C 0,0 km/h (0 Bft)
29/04/2021 11:00 13,7 C 96 % 1008,9 hPa 3,2 l/m 0,0 km/h (0 Bft) N 0,00 h 0,051 mm 81 W/m 13,1 C 13,7 C 0,1 km/h (0 Bft)
29/04/2021 12:00 13,3 C 96 % 1009,1 hPa 6,2 l/m 0,0 km/h (0 Bft) N 0,00 h 0,051 mm 37 W/m 12,7 C 13,3 C 0,0 km/h (0 Bft)
29/04/2021 13:00 12,8 C 96 % 1008,8 hPa 7,8 l/m 0,0 km/h (0 Bft) N 0,00 h 0,025 mm 24 W/m 12,3 C 12,8 C 0,1 km/h (0 Bft)
29/04/2021 14:00 12,5 C 97 % 1008,9 hPa 16,8 l/m 1,0 km/h (0 Bft) NO 0,00 h 0,000 mm 11 W/m 12,1 C 12,5 C 2,8 km/h (1 Bft)
29/04/2021 15:00 12,7 C 98 % 1008,2 hPa 1,8 l/m 0,0 km/h (0 Bft) N 0,00 h 0,000 mm 77 W/m 12,3 C 12,7 C 0,1 km/h (0 Bft)
29/04/2021 16:00 13,1 C 98 % 1008,2 hPa 1,0 l/m 0,0 km/h (0 Bft) N 0,00 h 0,025 mm 156 W/m 12,8 C 13,1 C 0,0 km/h (0 Bft)
29/04/2021 17:00 14,6 C 99 % 1008,2 hPa 0,0 l/m 0,0 km/h (0 Bft) N 0,20 h 0,076 mm 258 W/m 14,5 C 14,6 C 0,0 km/h (0 Bft)
29/04/2021 18:00 15,9 C 95 % 1008,0 hPa 0,0 l/m 0,0 km/h (0 Bft) N 0,97 h 0,127 mm 288 W/m 15,1 C 15,9 C 0,0 km/h (0 Bft)
29/04/2021 19:00 15,0 C 89 % 1007,8 hPa 0,0 l/m 0,0 km/h (0 Bft) N 0,50 h 0,152 mm 94 W/m 13,3 C 15,0 C 0,0 km/h (0 Bft)
29/04/2021 20:00 13,7 C 93 % 1008,1 hPa 0,0 l/m 0,0 km/h (0 Bft) N 0,00 h 0,051 mm 9 W/m 12,6 C 13,7 C 0,1 km/h (0 Bft)
29/04/2021 21:00 12,9 C 95 % 1009,0 hPa 0,0 l/m 0,0 km/h (0 Bft) N 0,00 h 0,000 mm 0 W/m 12,1 C 12,9 C 0,0 km/h (0 Bft)
29/04/2021 22:00 12,4 C 95 % 1009,6 hPa 0,0 l/m 0,0 km/h (0 Bft) N 0,00 h 0,000 mm 0 W/m 11,6 C 12,4 C 0,0 km/h (0 Bft)
29/04/2021 23:00 11,8 C 96 % 1009,8 hPa 0,0 l/m 0,0 km/h (0 Bft) N 0,00 h 0,000 mm 0 W/m 11,1 C 11,8 C 0,0 km/h (0 Bft)
30/04/2021 00:00 11,3 C 96 % 1010,3 hPa 0,0 l/m 0,0 km/h (0 Bft) N 0,00 h 0,000 mm 0 W/m 10,8 C 11,3 C 0,0 km/h (0 Bft)
30/04/2021 01:00 11,4 C 97 % 1010,6 hPa 0,0 l/m 0,0 km/h (0 Bft) N 0,00 h 0,000 mm 0 W/m 11,0 C 11,4 C 0,0 km/h (0 Bft)
30/04/2021 02:00 11,7 C 98 % 1010,3 hPa 0,0 l/m 0,0 km/h (0 Bft) N 0,00 h 0,000 mm 0 W/m 11,3 C 11,7 C 0,1 km/h (0 Bft)
30/04/2021 03:00 11,3 C 98 % 1010,0 hPa 0,0 l/m 0,0 km/h (0 Bft) N 0,00 h 0,000 mm 0 W/m 11,0 C 11,3 C 0,0 km/h (0 Bft)
30/04/2021 04:00 11,2 C 98 % 1009,9 hPa 0,0 l/m 0,0 km/h (0 Bft) N 0,00 h 0,000 mm 0 W/m 10,9 C 11,2 C 0,1 km/h (0 Bft)
30/04/2021 05:00 11,3 C 98 % 1009,9 hPa 0,0 l/m 0,0 km/h (0 Bft) N 0,00 h 0,000 mm 0 W/m 11,0 C 11,3 C 0,0 km/h (0 Bft)
30/04/2021 06:00 11,2 C 98 % 1009,9 hPa 0,0 l/m 0,0 km/h (0 Bft) N 0,00 h 0,000 mm 11 W/m 10,9 C 11,2 C 0,1 km/h (0 Bft)
30/04/2021 07:00 11,5 C 98 % 1010,3 hPa 0,0 l/m 0,0 km/h (0 Bft) N 0,00 h 0,000 mm 42 W/m 11,3 C 11,5 C 0,2 km/h (0 Bft)
30/04/2021 08:00 12,0 C 98 % 1010,6 hPa 0,0 l/m 0,0 km/h (0 Bft) N 0,00 h 0,025 mm 70 W/m 11,7 C 12,0 C 0,0 km/h (0 Bft)
30/04/2021 09:00 13,3 C 98 % 1010,7 hPa 0,0 l/m 0,1 km/h (0 Bft) S-SO 0,00 h 0,025 mm 183 W/m 13,0 C 13,3 C 0,3 km/h (0 Bft)
30/04/2021 10:00 15,2 C 92 % 1011,1 hPa 0,2 l/m 0,1 km/h (0 Bft) S-SO 0,30 h 0,102 mm 337 W/m 13,9 C 15,2 C 0,6 km/h (0 Bft)
30/04/2021 11:00 17,3 C 83 % 1011,0 hPa 0,0 l/m 0,0 km/h (0 Bft) S-SO 0,65 h 0,178 mm 524 W/m 14,3 C 17,3 C 0,2 km/h (0 Bft)
30/04/2021 12:00 19,1 C 77 % 1010,4 hPa 0,0 l/m 0,4 km/h (0 Bft) S-SO 0,55 h 0,279 mm 559 W/m 15,0 C 19,1 C 1,6 km/h (1 Bft)
30/04/2021 13:00 19,6 C 74 % 1009,8 hPa 0,0 l/m 0,8 km/h (0 Bft) E 0,62 h 0,305 mm 525 W/m 14,9 C 19,6 C 2,5 km/h (1 Bft)
30/04/2021 14:00 19,3 C 76 % 1010,0 hPa 0,0 l/m 2,3 km/h (1 Bft) E 0,68 h 0,305 mm 497 W/m 15,0 C 19,3 C 7,1 km/h (2 Bft)
30/04/2021 15:00 16,8 C 86 % 1010,3 hPa 0,0 l/m 1,2 km/h (1 Bft) E-SE 0,00 h 0,305 mm 173 W/m 14,4 C 16,8 C 4,3 km/h (1 Bft)
30/04/2021 16:00 16,1 C 90 % 1010,0 hPa 0,0 l/m 0,5 km/h (0 Bft) E-SE 0,00 h 0,102 mm 102 W/m 14,3 C 16,1 C 2,2 km/h (1 Bft)
30/04/2021 17:00 15,4 C 92 % 1010,1 hPa 0,0 l/m 0,4 km/h (0 Bft) SE 0,00 h 0,051 mm 107 W/m 14,2 C 15,4 C 2,1 km/h (1 Bft)
30/04/2021 18:00 15,6 C 92 % 1009,8 hPa 0,0 l/m 0,1 km/h (0 Bft) SE 0,00 h 0,051 mm 58 W/m 14,3 C 15,6 C 0,6 km/h (0 Bft)
30/04/2021 19:00 15,1 C 93 % 1009,8 hPa 0,0 l/m 0,1 km/h (0 Bft) SE 0,00 h 0,025 mm 24 W/m 14,0 C 15,1 C 0,5 km/h (0 Bft)
30/04/2021 20:00 14,5 C 93 % 1009,6 hPa 0,0 l/m 0,0 km/h (0 Bft) N 0,05 h 0,025 mm 17 W/m 13,4 C 14,5 C 0,0 km/h (0 Bft)
30/04/2021 21:00 13,6 C 93 % 1009,9 hPa 0,0 l/m 0,0 km/h (0 Bft) N 0,00 h 0,000 mm 0 W/m 12,5 C 13,6 C 0,0 km/h (0 Bft)
30/04/2021 22:00 12,9 C 95 % 1010,1 hPa 0,0 l/m 0,0 km/h (0 Bft) N 0,00 h 0,000 mm 0 W/m 12,1 C 12,9 C 0,1 km/h (0 Bft)
30/04/2021 23:00 12,7 C 97 % 1009,9 hPa 0,0 l/m 0,5 km/h (0 Bft) NO 0,00 h 0,000 mm 0 W/m 12,1 C 12,7 C 2,3 km/h (1 Bft)
01/05/2021 00:00 12,1 C 97 % 1009,7 hPa 0,0 l/m 0,0 km/h (0 Bft) N 0,00 h 0,000 mm 0 W/m 11,6 C 12,1 C 0,0 km/h (0 Bft)
01/05/2021 01:00 11,6 C 97 % 1009,2 hPa 0,0 l/m 0,0 km/h (0 Bft) N 0,00 h 0,000 mm 0 W/m 11,1 C 11,6 C 0,0 km/h (0 Bft)
01/05/2021 02:00 11,5 C 97 % 1008,8 hPa 0,0 l/m 0,0 km/h (0 Bft) N 0,00 h 0,000 mm 0 W/m 11,0 C 11,5 C 0,0 km/h (0 Bft)
01/05/2021 03:00 11,1 C 96 % 1008,6 hPa 0,0 l/m 0,0 km/h (0 Bft) N 0,00 h 0,000 mm 0 W/m 10,6 C 11,1 C 0,0 km/h (0 Bft)
01/05/2021 04:00 11,1 C 96 % 1008,5 hPa 0,0 l/m 0,0 km/h (0 Bft) N 0,00 h 0,000 mm 0 W/m 10,5 C 11,1 C 0,0 km/h (0 Bft)
01/05/2021 05:00 11,4 C 97 % 1008,3 hPa 0,0 l/m 0,0 km/h (0 Bft) N 0,00 h 0,000 mm 0 W/m 10,8 C 11,4 C 0,1 km/h (0 Bft)
01/05/2021 06:00 11,7 C 96 % 1008,3 hPa 0,0 l/m 0,0 km/h (0 Bft) NO 0,00 h 0,000 mm 9 W/m 11,1 C 11,7 C 0,1 km/h (0 Bft)
01/05/2021 07:00 11,7 C 96 % 1008,3 hPa 0,0 l/m 0,0 km/h (0 Bft) N 0,00 h 0,000 mm 39 W/m 11,1 C 11,7 C 0,0 km/h (0 Bft)
01/05/2021 08:00 12,2 C 96 % 1008,3 hPa 0,0 l/m 0,0 km/h (0 Bft) N 0,00 h 0,025 mm 45 W/m 11,5 C 12,2 C 0,0 km/h (0 Bft)
01/05/2021 09:00 12,3 C 95 % 1008,3 hPa 0,6 l/m 0,0 km/h (0 Bft) N 0,00 h 0,025 mm 50 W/m 11,6 C 12,3 C 0,2 km/h (0 Bft)
01/05/2021 10:00 12,8 C 96 % 1008,1 hPa 0,0 l/m 0,0 km/h (0 Bft) N 0,00 h 0,025 mm 133 W/m 12,2 C 12,8 C 0,0 km/h (0 Bft)
01/05/2021 11:00 13,3 C 96 % 1008,0 hPa 0,2 l/m 0,1 km/h (0 Bft) N 0,00 h 0,076 mm 137 W/m 12,7 C 13,3 C 0,4 km/h (0 Bft)
01/05/2021 12:00 13,7 C 96 % 1007,8 hPa 0,0 l/m 0,0 km/h (0 Bft) N 0,00 h 0,076 mm 84 W/m 13,0 C 13,7 C 0,0 km/h (0 Bft)
01/05/2021 13:00 13,4 C 96 % 1007,8 hPa 1,6 l/m 0,3 km/h (0 Bft) NO 0,00 h 0,051 mm 97 W/m 12,8 C 13,4 C 2,0 km/h (1 Bft)
01/05/2021 14:00 13,8 C 97 % 1007,2 hPa 1,4 l/m 0,0 km/h (0 Bft) N 0,00 h 0,051 mm 96 W/m 13,4 C 13,8 C 0,0 km/h (0 Bft)
01/05/2021 15:00 14,0 C 97 % 1006,6 hPa 2,6 l/m 0,0 km/h (0 Bft) N 0,00 h 0,051 mm 57 W/m 13,6 C 14,0 C 0,0 km/h (0 Bft)
01/05/2021 16:00 13,7 C 97 % 1006,2 hPa 4,6 l/m 0,0 km/h (0 Bft) N 0,00 h 0,025 mm 45 W/m 13,3 C 13,7 C 0,1 km/h (0 Bft)
01/05/2021 17:00 13,8 C 98 % 1005,5 hPa 0,2 l/m 0,0 km/h (0 Bft) N 0,00 h 0,025 mm 63 W/m 13,5 C 13,8 C 0,0 km/h (0 Bft)
01/05/2021 18:00 13,6 C 98 % 1005,0 hPa 1,2 l/m 0,0 km/h (0 Bft) N 0,00 h 0,025 mm 38 W/m 13,3 C 13,6 C 0,0 km/h (0 Bft)
01/05/2021 19:00 13,1 C 98 % 1004,7 hPa 2,0 l/m 0,0 km/h (0 Bft) N 0,00 h 0,025 mm 15 W/m 12,8 C 13,1 C 0,0 km/h (0 Bft)
01/05/2021 20:00 12,7 C 98 % 1005,2 hPa 6,0 l/m 0,0 km/h (0 Bft) N 0,00 h 0,000 mm 0 W/m 12,4 C 12,7 C 0,0 km/h (0 Bft)
01/05/2021 21:00 12,3 C 98 % 1005,7 hPa 3,0 l/m 0,0 km/h (0 Bft) N 0,00 h 0,000 mm 0 W/m 11,9 C 12,3 C 0,1 km/h (0 Bft)
01/05/2021 22:00 11,6 C 98 % 1005,2 hPa 0,0 l/m 0,1 km/h (0 Bft) O-NO 0,00 h 0,000 mm 0 W/m 11,3 C 11,6 C 0,4 km/h (0 Bft)
01/05/2021 23:00 11,2 C 98 % 1005,5 hPa 0,0 l/m 2,1 km/h (1 Bft) O-SO 0,00 h 0,000 mm 0 W/m 11,0 C 11,2 C 6,1 km/h (2 Bft)
02/05/2021 00:00 10,9 C 98 % 1006,0 hPa 0,0 l/m 0,0 km/h (0 Bft) O 0,00 h 0,000 mm 0 W/m 10,7 C 10,9 C 0,2 km/h (0 Bft)
02/05/2021 01:00 10,3 C 98 % 1006,2 hPa 0,2 l/m 0,6 km/h (0 Bft) NO 0,00 h 0,000 mm 0 W/m 10,1 C 10,3 C 3,1 km/h (1 Bft)
02/05/2021 02:00 9,2 C 98 % 1006,5 hPa 0,0 l/m 2,7 km/h (1 Bft) O-NO 0,00 h 0,000 mm 0 W/m 8,9 C 9,1 C 7,6 km/h (2 Bft)
02/05/2021 03:00 8,4 C 98 % 1006,4 hPa 0,0 l/m 3,9 km/h (1 Bft) NO 0,00 h 0,000 mm 0 W/m 8,1 C 8,0 C 12,7 km/h (3 Bft)
02/05/2021 04:00 8,1 C 96 % 1006,3 hPa 0,0 l/m 15,2 km/h (3 Bft) O-SO 0,00 h 0,000 mm 0 W/m 7,5 C 5,6 C 27,2 km/h (4 Bft)
02/05/2021 05:00 7,9 C 94 % 1006,4 hPa 0,0 l/m 13,8 km/h (3 Bft) O-SO 0,00 h 0,000 mm 0 W/m 7,0 C 5,6 C 25,2 km/h (4 Bft)
02/05/2021 06:00 7,9 C 92 % 1007,2 hPa 0,0 l/m 9,7 km/h (2 Bft) O-SO 0,02 h 0,000 mm 12 W/m 6,7 C 6,4 C 19,0 km/h (3 Bft)
02/05/2021 07:00 8,7 C 88 % 1007,9 hPa 0,0 l/m 13,4 km/h (3 Bft) O-SO 0,00 h 0,025 mm 25 W/m 6,9 C 6,7 C 24,7 km/h (4 Bft)
02/05/2021 08:00 10,2 C 84 % 1008,3 hPa 0,0 l/m 5,2 km/h (1 Bft) O-SO 0,18 h 0,025 mm 101 W/m 7,7 C 9,8 C 14,9 km/h (3 Bft)
02/05/2021 09:00 13,9 C 76 % 1008,8 hPa 0,0 l/m 0,5 km/h (0 Bft) O-NO 1,00 h 0,051 mm 500 W/m 9,7 C 13,9 C 1,8 km/h (1 Bft)
02/05/2021 10:00 17,5 C 66 % 1009,2 hPa 0,0 l/m 0,9 km/h (0 Bft) SO 1,00 h 0,254 mm 658 W/m 11,0 C 17,5 C 3,1 km/h (1 Bft)
02/05/2021 11:00 19,6 C 53 % 1009,1 hPa 0,0 l/m 4,6 km/h (1 Bft) S-SO 1,00 h 0,356 mm 784 W/m 9,8 C 19,6 C 10,5 km/h (2 Bft)
02/05/2021 12:00 19,8 C 43 % 1009,2 hPa 0,0 l/m 12,4 km/h (3 Bft) S-SO 1,00 h 0,483 mm 851 W/m 6,7 C 19,8 C 24,3 km/h (4 Bft)
02/05/2021 13:00 20,9 C 37 % 1009,3 hPa 0,0 l/m 15,4 km/h (3 Bft) O-SO 1,00 h 0,584 mm 924 W/m 5,5 C 20,9 C 29,0 km/h (5 Bft)
02/05/2021 14:00 20,2 C 36 % 1009,7 hPa 0,0 l/m 16,7 km/h (3 Bft) S-SO 0,83 h 0,660 mm 707 W/m 4,5 C 20,2 C 30,0 km/h (5 Bft)
02/05/2021 15:00 21,1 C 33 % 1009,8 hPa 0,0 l/m 15,9 km/h (3 Bft) SO 1,00 h 0,559 mm 811 W/m 4,0 C 21,1 C 28,4 km/h (4 Bft)
02/05/2021 16:00 20,8 C 31 % 1009,8 hPa 0,0 l/m 14,5 km/h (3 Bft) S-SO 0,90 h 0,610 mm 583 W/m 2,9 C 20,8 C 26,9 km/h (4 Bft)
02/05/2021 17:00 20,0 C 38 % 1009,8 hPa 0,0 l/m 15,5 km/h (3 Bft) SO 0,77 h 0,483 mm 406 W/m 5,1 C 20,0 C 29,3 km/h (5 Bft)
02/05/2021 18:00 19,3 C 40 % 1010,1 hPa 0,0 l/m 14,7 km/h (3 Bft) O-SO 0,55 h 0,381 mm 261 W/m 5,3 C 19,3 C 27,9 km/h (4 Bft)
02/05/2021 19:00 17,9 C 41 % 1010,3 hPa 0,0 l/m 10,9 km/h (2 Bft) O-SO 0,65 h 0,279 mm 129 W/m 4,5 C 17,9 C 22,9 km/h (4 Bft)
02/05/2021 20:00 16,5 C 41 % 1011,1 hPa 0,0 l/m 8,8 km/h (2 Bft) O-SO 0,05 h 0,152 mm 17 W/m 3,2 C 16,5 C 17,8 km/h (3 Bft)
02/05/2021 21:00 15,3 C 42 % 1011,7 hPa 0,0 l/m 4,1 km/h (1 Bft) O-SO 0,00 h 0,076 mm 0 W/m 2,3 C 15,3 C 11,1 km/h (2 Bft)
02/05/2021 22:00 14,5 C 42 % 1012,6 hPa 0,0 l/m 0,4 km/h (0 Bft) O-SO 0,00 h 0,076 mm 0 W/m 1,9 C 14,5 C 1,7 km/h (1 Bft)
02/05/2021 23:00 13,1 C 51 % 1013,1 hPa 0,0 l/m 1,1 km/h (1 Bft) S 0,00 h 0,051 mm 0 W/m 3,1 C 13,1 C 1,9 km/h (1 Bft)
Min-Date _ 02/05/21 02/05/21 27/04/21 - 26/04/21 - - - - 02/05/21 02/05/21 26/04/21
_ Min-Heure 05:42 16:24 06:00 - 00:00 - - - - 22:43 04:48 00:00
Minimum _ 7,8 C 27 % 1004,0 hPa - 0,0 km/h (0 Bft) - - - - 1,2 C 4,4 C 0,0 km/h (0 Bft)
Max-Date _ 02/05/21 29/04/21 26/04/21 29/04/21 02/05/21 - 26/04/21 02/05/21 30/04/21 30/04/21 02/05/21 02/05/21
_ Max-Heure 15:12 16:39 00:00 14:53 16:24 - 09:40 14:00 14:41 13:01 15:12 14:04
Maximum _ 21,5 C 99 % 1014,0 hPa 16,8 l/m 27,4 km/h
S-SO (4 Bft)
- 0,02 h 0,660 mm 1042 W/m 16,0 C 21,5 C 49,9 km/h
S-SO (6 Bft)
Moyenne _ 13,8 C 84 % 1008,1 hPa #69,8 l/m 1,6 km/h (1 Bft) O-SO #22:11 h #14,061 mm 216 W/m 10,8 C 13,8 C 3,8 km/h (1 Bft)
Roquefort les pins